createdAt,value
2023-06-11T00:00:52.282Z,230.02
2023-06-11T00:01:52.258Z,229.73
2023-06-11T00:02:52.421Z,229.94
2023-06-11T00:03:52.326Z,233.85
2023-06-11T00:04:52.470Z,237.23
2023-06-11T00:05:52.306Z,235.79
2023-06-11T00:06:52.277Z,235.54
2023-06-11T00:07:52.297Z,235.88
2023-06-11T00:08:52.277Z,232.91
2023-06-11T00:09:52.314Z,231.76
2023-06-11T00:10:52.306Z,232.19
2023-06-11T00:11:52.291Z,228.58
2023-06-11T00:12:52.327Z,224.63
2023-06-11T00:13:52.298Z,223.22
2023-06-11T00:14:52.327Z,225.19
2023-06-11T00:15:52.407Z,227.31
2023-06-11T00:16:52.361Z,230.07
2023-06-11T00:17:52.424Z,234.83
2023-06-11T00:18:52.380Z,232.96
2023-06-11T00:19:52.412Z,233.57
2023-06-11T00:20:52.406Z,234.77
2023-06-11T00:21:52.420Z,237.11
2023-06-11T00:22:52.421Z,239.49
2023-06-11T00:23:52.466Z,238.41
2023-06-11T00:24:52.464Z,240.13
2023-06-11T00:25:52.509Z,242.24
2023-06-11T00:26:52.461Z,242.51
2023-06-11T00:27:52.506Z,241.13
2023-06-11T00:28:52.551Z,231.85
2023-06-11T00:29:52.532Z,229.21
2023-06-11T00:30:52.544Z,226.39
2023-06-11T00:31:52.595Z,227.26
2023-06-11T00:32:52.623Z,225.92
2023-06-11T00:33:52.558Z,224.48
2023-06-11T00:34:52.574Z,226.45
2023-06-11T00:35:52.591Z,227.87
2023-06-11T00:36:52.585Z,232.61
2023-06-11T00:37:52.599Z,232.82
2023-06-11T00:38:52.612Z,232.13
2023-06-11T00:39:52.655Z,232.53
2023-06-11T00:40:52.644Z,231.88
2023-06-11T00:41:52.677Z,231.87
2023-06-11T00:42:52.676Z,230.56
2023-06-11T00:43:52.680Z,229.05
2023-06-11T00:44:52.698Z,227.90
2023-06-11T00:45:52.969Z,228.39
2023-06-11T00:46:52.716Z,228.48
2023-06-11T00:47:52.871Z,227.48
2023-06-11T00:48:52.784Z,229.46
2023-06-11T00:49:52.778Z,229.03
2023-06-11T00:50:52.870Z,230.95
2023-06-11T00:51:52.783Z,231.48
2023-06-11T00:52:52.788Z,234.33
2023-06-11T00:53:52.814Z,236.07
2023-06-11T00:54:52.804Z,235.81
2023-06-11T00:55:52.884Z,237.62
2023-06-11T00:56:52.886Z,242.55
2023-06-11T00:57:52.878Z,246.21
2023-06-11T00:58:52.922Z,249.56
2023-06-11T00:59:52.897Z,250.00
2023-06-11T01:00:52.974Z,250.00
2023-06-11T01:01:52.954Z,248.65
2023-06-11T01:02:53.019Z,250.03
2023-06-11T01:03:53.054Z,250.71
2023-06-11T01:04:53.054Z,250.00
2023-06-11T01:05:53.100Z,250.00
2023-06-11T01:06:53.046Z,249.98
2023-06-11T01:07:53.115Z,250.00
2023-06-11T01:08:53.145Z,249.44
2023-06-11T01:09:53.193Z,248.32
2023-06-11T01:10:53.300Z,248.28
2023-06-11T01:11:53.227Z,247.77
2023-06-11T01:12:53.287Z,245.88
2023-06-11T01:13:53.344Z,247.24
2023-06-11T01:14:53.359Z,246.27
2023-06-11T01:15:53.472Z,245.21
2023-06-11T01:16:53.643Z,246.70
2023-06-11T01:17:53.554Z,246.96
2023-06-11T01:18:53.545Z,246.06
2023-06-11T01:19:53.666Z,245.49
2023-06-11T01:20:53.643Z,244.73
2023-06-11T01:21:53.748Z,243.81
2023-06-11T01:22:53.758Z,244.72
2023-06-11T01:23:53.888Z,243.92
2023-06-11T01:24:53.841Z,242.98
2023-06-11T01:25:53.875Z,243.40
2023-06-11T01:26:53.943Z,242.16
2023-06-11T01:27:53.989Z,241.74
2023-06-11T01:28:54.049Z,241.85
2023-06-11T01:29:54.104Z,240.18
2023-06-11T01:30:54.260Z,241.64
2023-06-11T01:31:54.261Z,242.21
2023-06-11T01:32:54.430Z,244.29
2023-06-11T01:33:54.351Z,243.49
2023-06-11T01:34:54.400Z,242.55
2023-06-11T01:35:54.429Z,242.29
2023-06-11T01:36:54.502Z,242.24
2023-06-11T01:37:54.531Z,242.90
2023-06-11T01:38:54.605Z,242.42
2023-06-11T01:39:54.799Z,241.36
2023-06-11T01:40:54.748Z,241.90
2023-06-11T01:41:54.815Z,241.84
2023-06-11T01:42:54.832Z,241.76
2023-06-11T01:43:54.953Z,241.15
2023-06-11T01:44:54.942Z,239.61
2023-06-11T01:45:54.985Z,234.77
2023-06-11T01:46:55.100Z,231.49
2023-06-11T01:47:55.140Z,227.17
2023-06-11T01:48:55.155Z,222.65
2023-06-11T01:49:55.182Z,219.91
2023-06-11T01:50:55.292Z,215.57
2023-06-11T01:51:55.357Z,213.60
2023-06-11T01:52:55.400Z,214.15
2023-06-11T01:53:55.463Z,215.84
2023-06-11T01:54:55.493Z,216.75
2023-06-11T01:55:55.592Z,218.91
2023-06-11T01:56:55.650Z,223.78
2023-06-11T01:57:55.670Z,226.60
2023-06-11T01:58:55.728Z,224.14
2023-06-11T01:59:55.829Z,224.72
2023-06-11T02:00:55.911Z,227.05
2023-06-11T02:01:56.045Z,223.14
2023-06-11T02:02:56.064Z,219.62
2023-06-11T02:03:56.093Z,219.20
2023-06-11T02:04:56.105Z,220.76
2023-06-11T02:05:56.153Z,222.33
2023-06-11T02:06:56.226Z,223.45
2023-06-11T02:07:56.269Z,223.47
2023-06-11T02:08:56.309Z,224.56
2023-06-11T02:09:56.338Z,224.17
2023-06-11T02:10:56.467Z,225.21
2023-06-11T02:11:56.512Z,227.48
2023-06-11T02:12:56.603Z,230.85
2023-06-11T02:13:56.654Z,231.20
2023-06-11T02:14:56.691Z,233.52
2023-06-11T02:15:56.760Z,234.44
2023-06-11T02:16:56.914Z,233.72
2023-06-11T02:17:56.931Z,231.30
2023-06-11T02:18:56.945Z,226.32
2023-06-11T02:19:57.078Z,223.87
2023-06-11T02:20:57.086Z,219.34
2023-06-11T02:21:57.102Z,216.55
2023-06-11T02:22:57.140Z,214.63
2023-06-11T02:23:57.185Z,210.87
2023-06-11T02:24:57.219Z,210.05
2023-06-11T02:25:57.301Z,211.41
2023-06-11T02:26:57.280Z,214.99
2023-06-11T02:27:57.355Z,218.17
2023-06-11T02:28:57.397Z,216.05
2023-06-11T02:29:57.473Z,212.64
2023-06-11T02:30:57.518Z,213.16
2023-06-11T02:31:57.568Z,214.67
2023-06-11T02:32:57.631Z,215.51
2023-06-11T02:33:57.641Z,216.76
2023-06-11T02:34:57.617Z,216.89
2023-06-11T02:35:57.693Z,212.62
2023-06-11T02:36:57.763Z,211.75
2023-06-11T02:37:57.826Z,212.50
2023-06-11T02:38:57.864Z,212.18
2023-06-11T02:39:57.964Z,215.51
2023-06-11T02:40:58.033Z,214.37
2023-06-11T02:41:58.058Z,215.17
2023-06-11T02:42:58.112Z,212.57
2023-06-11T02:43:58.138Z,211.99
2023-06-11T02:44:58.153Z,212.34
2023-06-11T02:45:58.225Z,212.62
2023-06-11T02:46:58.256Z,216.24
2023-06-11T02:47:58.319Z,219.43
2023-06-11T02:48:58.296Z,222.62
2023-06-11T02:49:58.370Z,224.09
2023-06-11T02:50:58.420Z,227.59
2023-06-11T02:51:58.482Z,228.39
2023-06-11T02:52:58.551Z,228.34
2023-06-11T02:53:59.573Z,229.56
2023-06-11T02:54:58.652Z,229.99
2023-06-11T02:55:58.778Z,229.28
2023-06-11T02:56:58.805Z,228.65
2023-06-11T02:57:58.816Z,229.50
2023-06-11T02:58:58.920Z,228.04
2023-06-11T02:59:58.967Z,229.06
2023-06-11T03:00:59.009Z,229.91
2023-06-11T03:01:59.089Z,231.24
2023-06-11T03:02:59.140Z,234.58
2023-06-11T03:03:59.186Z,233.56
2023-06-11T03:04:59.258Z,230.98
2023-06-11T03:06:01.746Z,230.06
2023-06-11T03:06:59.214Z,230.64
2023-06-11T03:07:59.180Z,232.55
2023-06-11T03:08:59.198Z,233.01
2023-06-11T03:09:59.180Z,230.68
2023-06-11T03:10:59.204Z,230.37
2023-06-11T03:11:59.191Z,230.15
2023-06-11T03:12:59.174Z,229.15
2023-06-11T03:13:59.183Z,232.02
2023-06-11T03:14:59.158Z,234.25
2023-06-11T03:15:59.172Z,235.73
2023-06-11T03:16:59.138Z,236.34
2023-06-11T03:17:59.193Z,235.12
2023-06-11T03:18:59.091Z,234.37
2023-06-11T03:19:59.105Z,235.47
2023-06-11T03:20:59.210Z,234.91
2023-06-11T03:21:59.130Z,235.34
2023-06-11T03:22:59.085Z,234.76
2023-06-11T03:23:59.131Z,235.03
2023-06-11T03:24:59.090Z,233.35
2023-06-11T03:25:59.078Z,231.86
2023-06-11T03:26:59.107Z,229.87
2023-06-11T03:27:59.056Z,222.64
2023-06-11T03:28:59.032Z,218.01
2023-06-11T03:29:59.058Z,218.11
2023-06-11T03:30:59.076Z,218.89
2023-06-11T03:31:59.133Z,218.55
2023-06-11T03:32:59.080Z,217.53
2023-06-11T03:33:59.016Z,215.54
2023-06-11T03:34:59.034Z,213.18
2023-06-11T03:35:59.035Z,214.02
2023-06-11T03:36:59.045Z,215.94
2023-06-11T03:37:59.016Z,213.43
2023-06-11T03:38:58.970Z,210.35
2023-06-11T03:39:58.985Z,213.30
2023-06-11T03:40:58.987Z,216.03
2023-06-11T03:41:58.951Z,212.72
2023-06-11T03:43:00.806Z,208.56
2023-06-11T03:43:58.965Z,206.87
2023-06-11T03:44:58.935Z,206.13
2023-06-11T03:45:58.964Z,208.68
2023-06-11T03:46:58.974Z,209.61
2023-06-11T03:47:58.990Z,209.17
2023-06-11T03:48:58.998Z,211.47
2023-06-11T03:49:59.003Z,211.28
2023-06-11T03:50:59.009Z,210.48
2023-06-11T03:51:59.024Z,210.48
2023-06-11T03:52:59.073Z,211.60
2023-06-11T03:53:59.172Z,212.10
2023-06-11T03:54:59.246Z,213.16
2023-06-11T03:55:59.332Z,214.44
2023-06-11T03:56:59.304Z,214.65
2023-06-11T03:57:59.314Z,218.38
2023-06-11T03:58:59.368Z,219.19
2023-06-11T03:59:59.441Z,220.35
2023-06-11T04:00:59.455Z,220.78
2023-06-11T04:01:59.521Z,218.91
2023-06-11T04:03:00.568Z,218.68
2023-06-11T04:03:59.645Z,218.21
2023-06-11T04:04:59.603Z,217.22
2023-06-11T04:05:59.664Z,217.64
2023-06-11T04:06:59.738Z,218.32
2023-06-11T04:07:59.780Z,218.68
2023-06-11T04:08:59.811Z,217.20
2023-06-11T04:09:59.852Z,216.91
2023-06-11T04:10:59.930Z,215.75
2023-06-11T04:11:59.913Z,213.66
2023-06-11T04:12:59.984Z,210.14
2023-06-11T04:13:59.985Z,213.32
2023-06-11T04:15:00.049Z,210.45
2023-06-11T04:16:00.118Z,209.67
2023-06-11T04:17:00.163Z,210.92
2023-06-11T04:18:00.213Z,212.19
2023-06-11T04:19:00.161Z,212.17
2023-06-11T04:20:00.226Z,212.11
2023-06-11T04:21:00.240Z,215.98
2023-06-11T04:22:00.266Z,220.48
2023-06-11T04:23:00.307Z,222.82
2023-06-11T04:24:00.327Z,226.03
2023-06-11T04:25:00.319Z,227.15
2023-06-11T04:26:00.382Z,226.88
2023-06-11T04:27:00.370Z,228.06
2023-06-11T04:28:00.390Z,229.81
2023-06-11T04:29:00.391Z,231.99
2023-06-11T04:30:00.451Z,233.16
2023-06-11T04:31:00.486Z,230.55
2023-06-11T04:32:00.526Z,229.98
2023-06-11T04:33:00.639Z,230.83
2023-06-11T04:34:00.529Z,231.06
2023-06-11T04:35:00.558Z,233.47
2023-06-11T04:36:00.579Z,233.93
2023-06-11T04:37:00.614Z,234.54
2023-06-11T04:38:00.614Z,235.31
2023-06-11T04:39:00.613Z,235.23
2023-06-11T04:40:00.630Z,231.42
2023-06-11T04:41:00.654Z,231.25
2023-06-11T04:42:00.668Z,230.68
2023-06-11T04:43:00.651Z,232.19
2023-06-11T04:44:00.672Z,231.80
2023-06-11T04:45:00.655Z,229.93
2023-06-11T04:46:00.666Z,228.75
2023-06-11T04:47:00.698Z,230.86
2023-06-11T04:48:00.729Z,233.34
2023-06-11T04:49:00.669Z,233.77
2023-06-11T04:50:00.669Z,236.16
2023-06-11T04:51:00.702Z,233.49
2023-06-11T04:52:00.712Z,231.54
2023-06-11T04:53:00.719Z,228.38
2023-06-11T04:54:00.730Z,229.27
2023-06-11T04:55:00.763Z,231.08
2023-06-11T04:56:03.087Z,226.49
2023-06-11T04:57:00.747Z,225.18
2023-06-11T04:58:00.707Z,226.51
2023-06-11T04:59:00.721Z,223.75
2023-06-11T05:00:01.453Z,222.70
2023-06-11T05:01:00.712Z,219.72
2023-06-11T05:02:00.776Z,216.31
2023-06-11T05:03:00.725Z,215.98
2023-06-11T05:04:00.790Z,217.13
2023-06-11T05:05:00.737Z,219.76
2023-06-11T05:06:00.701Z,222.93
2023-06-11T05:07:00.672Z,217.68
2023-06-11T05:08:00.663Z,215.75
2023-06-11T05:09:00.633Z,217.00
2023-06-11T05:10:00.658Z,218.11
2023-06-11T05:11:00.637Z,216.23
2023-06-11T05:12:00.653Z,215.10
2023-06-11T05:13:00.606Z,216.94
2023-06-11T05:14:00.602Z,215.14
2023-06-11T05:15:00.608Z,212.48
2023-06-11T05:16:00.629Z,214.59
2023-06-11T05:17:00.697Z,213.70
2023-06-11T05:18:00.642Z,215.54
2023-06-11T05:19:00.596Z,217.02
2023-06-11T05:20:00.597Z,215.36
2023-06-11T05:21:00.604Z,213.76
2023-06-11T05:22:00.553Z,212.76
2023-06-11T05:23:00.645Z,210.12
2023-06-11T05:24:00.629Z,211.63
2023-06-11T05:25:00.613Z,216.59
2023-06-11T05:26:00.560Z,218.39
2023-06-11T05:27:00.530Z,218.19
2023-06-11T05:28:00.499Z,217.59
2023-06-11T05:29:00.517Z,211.99
2023-06-11T05:30:00.522Z,212.70
2023-06-11T05:31:00.551Z,212.74
2023-06-11T05:32:00.565Z,207.65
2023-06-11T05:33:00.596Z,202.81
2023-06-11T05:34:00.496Z,201.00
2023-06-11T05:35:00.482Z,198.51
2023-06-11T05:36:00.489Z,192.80
2023-06-11T05:37:00.481Z,186.04
2023-06-11T05:38:00.460Z,184.25
2023-06-11T05:39:00.482Z,177.32
2023-06-11T05:40:00.481Z,170.90
2023-06-11T05:41:00.504Z,166.20
2023-06-11T05:42:00.530Z,162.43
2023-06-11T05:43:00.569Z,159.01
2023-06-11T05:44:00.547Z,154.19
2023-06-11T05:45:00.548Z,151.62
2023-06-11T05:46:00.683Z,149.25
2023-06-11T05:47:00.744Z,148.90
2023-06-11T05:48:00.611Z,147.01
2023-06-11T05:49:00.603Z,151.36
2023-06-11T05:50:00.619Z,162.26
2023-06-11T05:51:00.668Z,161.43
2023-06-11T05:52:00.711Z,161.32
2023-06-11T05:53:00.772Z,166.10
2023-06-11T05:54:00.821Z,166.88
2023-06-11T05:55:00.926Z,167.59
2023-06-11T05:56:00.902Z,165.98
2023-06-11T05:57:00.974Z,166.94
2023-06-11T05:58:00.979Z,166.91
2023-06-11T05:59:01.024Z,168.61
2023-06-11T06:00:01.069Z,168.82
2023-06-11T06:01:01.141Z,165.30
2023-06-11T06:02:01.161Z,155.11
2023-06-11T06:03:01.277Z,152.43
2023-06-11T06:04:01.370Z,152.44
2023-06-11T06:05:01.360Z,156.92
2023-06-11T06:06:01.369Z,153.84
2023-06-11T06:07:01.391Z,154.30
2023-06-11T06:08:01.343Z,154.11
2023-06-11T06:09:01.350Z,153.33
2023-06-11T06:10:01.374Z,148.16
2023-06-11T06:11:01.353Z,149.69
2023-06-11T06:12:01.425Z,138.07
2023-06-11T06:13:01.426Z,138.21
2023-06-11T06:14:01.475Z,145.30
2023-06-11T06:15:01.535Z,142.01
2023-06-11T06:16:01.680Z,143.50
2023-06-11T06:17:01.617Z,138.87
2023-06-11T06:18:01.600Z,141.44
2023-06-11T06:19:01.681Z,149.27
2023-06-11T06:20:01.750Z,146.46
2023-06-11T06:21:01.793Z,145.91
2023-06-11T06:22:01.818Z,141.34
2023-06-11T06:23:01.777Z,138.83
2023-06-11T06:24:01.912Z,139.82
2023-06-11T06:25:02.260Z,143.13
2023-06-11T06:26:01.919Z,140.79
2023-06-11T06:27:01.911Z,134.40
2023-06-11T06:28:01.942Z,133.23
2023-06-11T06:29:01.950Z,135.22
2023-06-11T06:30:01.983Z,136.63
2023-06-11T06:31:02.048Z,129.41
2023-06-11T06:32:02.266Z,114.98
2023-06-11T06:33:02.135Z,115.64
2023-06-11T06:34:02.132Z,116.65
2023-06-11T06:35:02.224Z,123.50
2023-06-11T06:36:02.197Z,115.10
2023-06-11T06:37:02.192Z,116.93
2023-06-11T06:38:02.242Z,119.52
2023-06-11T06:39:02.268Z,122.36
2023-06-11T06:40:02.330Z,117.56
2023-06-11T06:41:02.358Z,119.24
2023-06-11T06:42:02.395Z,119.30
2023-06-11T06:43:02.427Z,118.90
2023-06-11T06:44:02.478Z,115.32
2023-06-11T06:45:02.471Z,110.37
2023-06-11T06:46:02.501Z,103.41
2023-06-11T06:47:02.509Z,94.53
2023-06-11T06:48:02.585Z,78.08
2023-06-11T06:49:02.616Z,74.92
2023-06-11T06:50:02.637Z,76.36
2023-06-11T06:51:03.387Z,79.68
2023-06-11T06:52:02.641Z,86.44
2023-06-11T06:53:02.705Z,90.16
2023-06-11T06:54:02.687Z,84.05
2023-06-11T06:55:02.711Z,79.26
2023-06-11T06:56:02.730Z,77.80
2023-06-11T06:57:02.801Z,76.08
2023-06-11T06:58:02.788Z,80.62
2023-06-11T06:59:02.826Z,82.48
2023-06-11T07:00:02.827Z,76.08
2023-06-11T07:01:02.867Z,74.98
2023-06-11T07:02:02.833Z,80.46
2023-06-11T07:03:02.937Z,83.81
2023-06-11T07:04:02.964Z,82.46
2023-06-11T07:05:03.010Z,80.54
2023-06-11T07:06:03.098Z,86.31
2023-06-11T07:07:03.124Z,90.29
2023-06-11T07:08:03.090Z,92.27
2023-06-11T07:09:03.120Z,94.72
2023-06-11T07:10:03.202Z,90.86
2023-06-11T07:11:03.229Z,87.35
2023-06-11T07:12:03.277Z,88.70
2023-06-11T07:13:03.315Z,94.79
2023-06-11T07:14:03.372Z,93.40
2023-06-11T07:15:03.415Z,91.25
2023-06-11T07:16:03.468Z,90.50
2023-06-11T07:17:03.453Z,93.66
2023-06-11T07:18:03.555Z,99.80
2023-06-11T07:19:03.525Z,100.83
2023-06-11T07:20:03.665Z,102.31
2023-06-11T07:21:03.620Z,99.37
2023-06-11T07:22:03.629Z,97.26
2023-06-11T07:23:03.620Z,99.79
2023-06-11T07:24:03.736Z,101.48
2023-06-11T07:25:03.747Z,100.40
2023-06-11T07:26:03.874Z,99.02
2023-06-11T07:27:03.782Z,102.04
2023-06-11T07:28:03.775Z,102.68
2023-06-11T07:29:03.824Z,104.12
2023-06-11T07:30:03.846Z,105.61
2023-06-11T07:31:03.961Z,104.52
2023-06-11T07:32:03.891Z,101.51
2023-06-11T07:33:03.951Z,101.93
2023-06-11T07:34:03.930Z,102.01
2023-06-11T07:35:03.970Z,101.58
2023-06-11T07:36:04.023Z,101.26
2023-06-11T07:37:04.075Z,105.00
2023-06-11T07:38:04.066Z,106.10
2023-06-11T07:39:04.061Z,104.08
2023-06-11T07:40:04.167Z,101.91
2023-06-11T07:41:04.172Z,99.95
2023-06-11T07:42:04.182Z,100.14
2023-06-11T07:43:04.203Z,101.30
2023-06-11T07:44:04.233Z,109.60
2023-06-11T07:45:04.250Z,115.51
2023-06-11T07:46:04.417Z,120.36
2023-06-11T07:47:04.440Z,124.72
2023-06-11T07:48:04.404Z,128.78
2023-06-11T07:49:04.394Z,126.62
2023-06-11T07:50:04.383Z,125.10
2023-06-11T07:51:04.394Z,122.68
2023-06-11T07:52:04.466Z,114.96
2023-06-11T07:53:04.557Z,107.71
2023-06-11T07:54:04.527Z,105.49
2023-06-11T07:55:04.521Z,106.96
2023-06-11T07:56:04.558Z,111.01
2023-06-11T07:57:04.573Z,114.09
2023-06-11T07:58:04.595Z,109.71
2023-06-11T07:59:04.587Z,114.50
2023-06-11T08:00:04.672Z,121.11
2023-06-11T08:01:04.722Z,116.48
2023-06-11T08:02:04.774Z,114.28
2023-06-11T08:03:04.866Z,118.46
2023-06-11T08:04:04.858Z,122.57
2023-06-11T08:05:04.890Z,114.13
2023-06-11T08:06:04.949Z,108.73
2023-06-11T08:07:04.874Z,108.34
2023-06-11T08:08:04.921Z,110.53
2023-06-11T08:09:04.963Z,97.55
2023-06-11T08:10:05.037Z,96.44
2023-06-11T08:11:05.117Z,96.78
2023-06-11T08:12:05.147Z,97.97
2023-06-11T08:13:05.171Z,96.99
2023-06-11T08:14:05.306Z,95.15
2023-06-11T08:15:05.244Z,97.51
2023-06-11T08:16:05.326Z,92.07
2023-06-11T08:17:05.492Z,87.72
2023-06-11T08:18:05.509Z,85.19
2023-06-11T08:19:05.434Z,92.35
2023-06-11T08:20:05.506Z,94.70
2023-06-11T08:21:05.515Z,89.51
2023-06-11T08:22:05.548Z,86.93
2023-06-11T08:23:05.533Z,94.27
2023-06-11T08:24:05.629Z,96.87
2023-06-11T08:25:05.626Z,81.88
2023-06-11T08:26:05.646Z,78.42
2023-06-11T08:27:05.679Z,82.92
2023-06-11T08:28:05.728Z,88.83
2023-06-11T08:29:05.728Z,72.54
2023-06-11T08:30:05.792Z,75.46
2023-06-11T08:31:05.808Z,69.87
2023-06-11T08:32:05.897Z,63.33
2023-06-11T08:33:05.856Z,56.26
2023-06-11T08:34:05.881Z,61.15
2023-06-11T08:35:05.896Z,72.07
2023-06-11T08:36:05.933Z,72.25
2023-06-11T08:37:05.950Z,66.01
2023-06-11T08:38:05.948Z,64.71
2023-06-11T08:39:05.948Z,78.05
2023-06-11T08:40:05.936Z,73.65
2023-06-11T08:41:06.002Z,70.17
2023-06-11T08:42:05.957Z,67.06
2023-06-11T08:43:05.982Z,61.63
2023-06-11T08:44:06.010Z,57.69
2023-06-11T08:45:06.024Z,60.83
2023-06-11T08:46:06.076Z,59.94
2023-06-11T08:47:06.065Z,56.34
2023-06-11T08:48:06.110Z,47.46
2023-06-11T08:49:06.048Z,51.04
2023-06-11T08:50:06.098Z,50.72
2023-06-11T08:51:06.123Z,45.57
2023-06-11T08:52:06.200Z,25.36
2023-06-11T08:53:06.191Z,17.34
2023-06-11T08:54:06.252Z,9.20
2023-06-11T08:55:06.297Z,0.00
2023-06-11T08:56:06.278Z,0.00
2023-06-11T08:57:06.272Z,1.60
2023-06-11T08:58:06.288Z,10.44
2023-06-11T08:59:06.290Z,21.51
2023-06-11T09:00:09.367Z,34.22
2023-06-11T09:01:06.318Z,42.66
2023-06-11T09:02:06.344Z,49.58
2023-06-11T09:03:06.345Z,52.32
2023-06-11T09:04:06.372Z,53.75
2023-06-11T09:05:06.320Z,41.56
2023-06-11T09:06:06.234Z,33.95
2023-06-11T09:07:06.271Z,34.04
2023-06-11T09:08:06.245Z,43.55
2023-06-11T09:09:06.255Z,47.61
2023-06-11T09:10:06.274Z,44.59
2023-06-11T09:11:06.214Z,43.56
2023-06-11T09:12:06.229Z,50.21
2023-06-11T09:13:06.177Z,54.42
2023-06-11T09:14:06.190Z,73.34
2023-06-11T09:15:06.193Z,61.29
2023-06-11T09:16:06.265Z,63.31
2023-06-11T09:17:06.193Z,67.67
2023-06-11T09:18:09.650Z,70.77
2023-06-11T09:19:07.203Z,64.42
2023-06-11T09:20:06.153Z,55.61
2023-06-11T09:21:06.181Z,60.75
2023-06-11T09:22:06.148Z,62.24
2023-06-11T09:23:06.147Z,59.44
2023-06-11T09:24:06.161Z,54.53
2023-06-11T09:25:06.105Z,52.20
2023-06-11T09:26:06.117Z,56.90
2023-06-11T09:27:06.090Z,55.80
2023-06-11T09:28:06.078Z,71.37
2023-06-11T09:29:06.118Z,83.84
2023-06-11T09:30:06.076Z,75.83
2023-06-11T09:31:06.096Z,62.19
2023-06-11T09:32:15.933Z,63.59
2023-06-11T09:33:07.148Z,63.72
2023-06-11T09:34:06.049Z,65.95
2023-06-11T09:35:06.051Z,71.00
2023-06-11T09:36:06.068Z,75.29
2023-06-11T09:37:06.065Z,84.65
2023-06-11T09:38:06.024Z,79.04
2023-06-11T09:39:05.994Z,77.08
2023-06-11T09:40:06.020Z,75.33
2023-06-11T09:41:06.028Z,69.22
2023-06-11T09:42:06.066Z,80.02
2023-06-11T09:43:06.208Z,99.57
2023-06-11T09:44:06.193Z,91.48
2023-06-11T09:45:06.257Z,89.98
2023-06-11T09:46:06.370Z,84.33
2023-06-11T09:47:08.228Z,75.30
2023-06-11T09:48:06.473Z,78.97
2023-06-11T09:49:06.326Z,84.24
2023-06-11T09:50:06.378Z,80.15
2023-06-11T09:51:06.376Z,47.71
2023-06-11T09:52:06.352Z,41.49
2023-06-11T09:53:06.355Z,44.03
2023-06-11T09:54:06.317Z,48.37
2023-06-11T09:55:06.345Z,49.93
2023-06-11T09:56:11.556Z,53.99
2023-06-11T09:57:07.302Z,54.52
2023-06-11T09:58:06.316Z,56.57
2023-06-11T09:59:06.348Z,59.48
2023-06-11T10:00:06.246Z,66.82
2023-06-11T10:01:07.695Z,79.28
2023-06-11T10:02:06.268Z,90.67
2023-06-11T10:03:06.372Z,94.64
2023-06-11T10:04:06.250Z,91.86
2023-06-11T10:05:06.271Z,82.30
2023-06-11T10:06:06.248Z,44.78
2023-06-11T10:07:06.230Z,41.16
2023-06-11T10:08:06.297Z,45.07
2023-06-11T10:09:06.238Z,39.36
2023-06-11T10:10:06.196Z,44.82
2023-06-11T10:11:06.252Z,48.32
2023-06-11T10:12:06.222Z,50.64
2023-06-11T10:13:06.150Z,48.43
2023-06-11T10:14:06.201Z,55.90
2023-06-11T10:15:06.240Z,47.74
2023-06-11T10:16:06.321Z,44.67
2023-06-11T10:17:06.351Z,45.19
2023-06-11T10:18:06.467Z,35.05
2023-06-11T10:19:06.431Z,29.94
2023-06-11T10:20:06.493Z,25.99
2023-06-11T10:21:06.577Z,33.96
2023-06-11T10:22:06.582Z,36.84
2023-06-11T10:23:07.752Z,29.63
2023-06-11T10:24:06.633Z,21.59
2023-06-11T10:25:06.608Z,27.99
2023-06-11T10:26:06.663Z,24.03
2023-06-11T10:27:06.765Z,31.15
2023-06-11T10:28:06.590Z,33.41
2023-06-11T10:29:07.313Z,26.59
2023-06-11T10:30:06.733Z,25.06
2023-06-11T10:31:06.760Z,25.00
2023-06-11T10:32:06.784Z,24.80
2023-06-11T10:33:07.019Z,25.42
2023-06-11T10:34:06.973Z,31.61
2023-06-11T10:35:07.054Z,40.24
2023-06-11T10:36:07.031Z,35.03
2023-06-11T10:37:07.077Z,42.76
2023-06-11T10:38:07.124Z,38.89
2023-06-11T10:39:07.651Z,40.89
2023-06-11T10:40:07.278Z,41.57
2023-06-11T10:41:07.271Z,48.13
2023-06-11T10:42:07.231Z,48.02
2023-06-11T10:43:07.328Z,41.50
2023-06-11T10:44:07.296Z,38.35
2023-06-11T10:45:07.308Z,32.32
2023-06-11T10:46:07.321Z,43.02
2023-06-11T10:47:07.397Z,52.44
2023-06-11T10:48:07.535Z,45.83
2023-06-11T10:49:07.445Z,44.59
2023-06-11T10:50:07.604Z,54.23
2023-06-11T10:51:07.604Z,52.60
2023-06-11T10:52:07.654Z,52.70
2023-06-11T10:53:07.710Z,43.85
2023-06-11T10:54:07.732Z,49.49
2023-06-11T10:55:07.913Z,42.84
2023-06-11T10:56:07.815Z,35.11
2023-06-11T10:57:07.857Z,42.22
2023-06-11T10:58:07.884Z,58.39
2023-06-11T10:59:07.973Z,56.41
2023-06-11T11:00:08.007Z,53.17
2023-06-11T11:01:07.978Z,50.46
2023-06-11T11:02:08.053Z,45.43
2023-06-11T11:03:08.077Z,40.80
2023-06-11T11:04:08.097Z,55.33
2023-06-11T11:05:08.158Z,47.48
2023-06-11T11:06:08.156Z,40.47
2023-06-11T11:07:08.221Z,40.20
2023-06-11T11:08:08.226Z,51.03
2023-06-11T11:09:08.250Z,39.42
2023-06-11T11:10:08.257Z,32.79
2023-06-11T11:11:08.300Z,29.37
2023-06-11T11:12:08.264Z,41.39
2023-06-11T11:13:08.269Z,29.93
2023-06-11T11:14:08.271Z,25.00
2023-06-11T11:15:08.437Z,25.42
2023-06-11T11:16:08.374Z,25.50
2023-06-11T11:17:08.413Z,29.26
2023-06-11T11:18:08.372Z,32.74
2023-06-11T11:19:08.356Z,43.68
2023-06-11T11:20:08.410Z,40.29
2023-06-11T11:21:08.466Z,26.07
2023-06-11T11:22:08.531Z,28.93
2023-06-11T11:23:08.598Z,26.12
2023-06-11T11:24:08.665Z,19.70
2023-06-11T11:25:08.884Z,28.10
2023-06-11T11:26:08.676Z,34.43
2023-06-11T11:27:08.701Z,34.67
2023-06-11T11:28:08.679Z,34.11
2023-06-11T11:29:08.687Z,44.23
2023-06-11T11:30:08.822Z,49.29
2023-06-11T11:31:08.738Z,38.43
2023-06-11T11:32:08.795Z,41.65
2023-06-11T11:33:08.910Z,55.40
2023-06-11T11:34:08.909Z,61.02
2023-06-11T11:35:08.921Z,60.68
2023-06-11T11:36:09.046Z,52.78
2023-06-11T11:37:09.047Z,49.03
2023-06-11T11:38:09.167Z,55.97
2023-06-11T11:39:09.057Z,57.96
2023-06-11T11:40:09.157Z,57.20
2023-06-11T11:41:09.170Z,60.78
2023-06-11T11:42:09.152Z,61.64
2023-06-11T11:43:09.199Z,65.91
2023-06-11T11:44:09.191Z,70.28
2023-06-11T11:45:09.144Z,71.84
2023-06-11T11:46:09.226Z,80.10
2023-06-11T11:47:09.255Z,83.86
2023-06-11T11:48:09.605Z,82.20
2023-06-11T11:49:09.335Z,83.13
2023-06-11T11:50:09.553Z,91.17
2023-06-11T11:51:09.453Z,91.19
2023-06-11T11:52:09.441Z,76.76
2023-06-11T11:53:09.448Z,65.67
2023-06-11T11:54:09.519Z,59.19
2023-06-11T11:55:09.578Z,57.92
2023-06-11T11:56:09.597Z,62.83
2023-06-11T11:57:09.587Z,43.33
2023-06-11T11:58:09.570Z,41.38
2023-06-11T11:59:09.599Z,28.80
2023-06-11T12:00:09.894Z,25.43
2023-06-11T12:01:09.621Z,25.00
2023-06-11T12:02:09.714Z,26.83
2023-06-11T12:03:09.824Z,27.02
2023-06-11T12:04:09.765Z,28.91
2023-06-11T12:05:09.836Z,27.32
2023-06-11T12:06:10.010Z,15.73
2023-06-11T12:07:09.921Z,12.04
2023-06-11T12:08:09.972Z,24.27
2023-06-11T12:09:10.007Z,20.22
2023-06-11T12:10:10.365Z,19.55
2023-06-11T12:11:10.498Z,25.90
2023-06-11T12:12:10.170Z,34.62
2023-06-11T12:13:10.215Z,34.36
2023-06-11T12:14:10.215Z,36.45
2023-06-11T12:15:10.205Z,38.83
2023-06-11T12:16:10.318Z,40.24
2023-06-11T12:17:10.280Z,36.91
2023-06-11T12:18:10.284Z,32.89
2023-06-11T12:19:22.709Z,29.78
2023-06-11T12:20:11.573Z,30.06
2023-06-11T12:21:10.291Z,31.26
2023-06-11T12:22:10.356Z,34.26
2023-06-11T12:23:10.323Z,34.73
2023-06-11T12:24:10.398Z,35.86
2023-06-11T12:25:10.374Z,39.15
2023-06-11T12:26:10.300Z,32.77
2023-06-11T12:27:13.010Z,27.40
2023-06-11T12:28:10.306Z,25.00
2023-06-11T12:29:10.247Z,32.52
2023-06-11T12:30:10.486Z,35.34
2023-06-11T12:31:10.264Z,36.32
2023-06-11T12:32:10.259Z,34.56
2023-06-11T12:33:10.328Z,36.83
2023-06-11T12:34:10.224Z,34.41
2023-06-11T12:35:10.206Z,34.04
2023-06-11T12:36:10.206Z,35.88
2023-06-11T12:37:10.208Z,40.46
2023-06-11T12:38:10.212Z,41.46
2023-06-11T12:39:10.190Z,38.78